Date,TemperatureHighF,TemperatureAvgF,TemperatureLowF,DewpointHighF,DewpointAvgF,DewpointLowF,HumidityHigh,HumidityAvg,HumidityLow,PressureMaxIn,PressureMinIn,WindSpeedMaxMPH,WindSpeedAvgMPH,GustSpeedMaxMPH,PrecipitationSumIn
2013-1-1,77.6,64.8,55.0,62.4,58.7,53.3,96,82,55,30.20,30.02,3,0,17,0.00
2013-1-2,79.5,67.8,58.0,66.6,62.0,56.3,95,83,58,30.05,29.95,4,0,10,0.00
2013-1-3,71.0,64.4,59.1,66.2,62.5,58.2,98,94,84,30.14,30.00,8,2,13,0.02
2013-1-4,63.6,61.4,58.8,62.3,60.3,57.4,98,96,95,30.25,30.12,7,4,15,0.04
2013-1-5,73.9,64.6,57.3,64.6,60.5,54.7,95,87,71,30.27,30.16,7,1,13,0.01
2013-1-6,79.9,67.9,62.6,70.8,65.1,61.2,98,91,69,30.19,30.03,5,0,7,0.11
2013-1-7,71.0,66.2,61.1,64.4,61.7,57.4,96,86,72,30.19,30.09,7,2,13,0.00
2013-1-8,78.0,71.3,67.3,71.0,67.9,64.3,97,90,77,30.20,30.10,4,0,6,0.04
2013-1-9,79.4,73.0,68.1,72.0,69.8,66.9,98,90,76,30.28,30.17,3,0,9,0.00
2013-1-10,78.5,72.2,67.4,69.7,67.6,65.7,97,86,68,30.29,30.21,7,1,11,0.01
2013-1-11,79.1,71.3,63.0,71.0,67.3,61.9,99,88,69,30.25,30.15,5,0,13,0.01
2013-1-12,79.3,70.8,64.1,69.2,65.8,62.6,99,85,63,30.18,30.08,3,0,6,0.01
2013-1-13,79.5,72.0,66.0,68.9,65.8,64.0,97,82,61,30.14,30.05,3,0,11,0.01
2013-1-14,79.4,71.6,64.0,67.9,66.0,62.8,98,84,63,30.18,30.10,2,0,6,0.00
2013-1-15,79.4,71.1,65.7,69.9,66.6,64.5,97,86,67,30.13,30.04,2,0,11,0.01
2013-1-16,81.6,70.8,62.4,69.4,65.2,61.5,97,84,52,30.08,29.98,5,0,12,0.00
2013-1-17,81.5,67.5,54.8,69.6,61.3,47.2,96,81,56,30.06,29.89,10,3,22,0.00
2013-1-18,66.8,56.4,43.7,60.0,50.0,36.6,92,79,71,30.24,30.07,11,6,14,0.08
2013-1-19,72.6,67.9,64.6,63.6,61.1,56.8,91,79,71,30.25,30.11,11,4,17,0.01
2013-1-20,69.5,65.1,60.6,65.1,61.3,58.9,95,88,78,30.15,30.04,8,2,15,0.00
2013-1-21,71.4,66.4,61.6,64.2,61.5,57.2,94,85,74,30.07,29.97,7,1,10,0.00
2013-1-22,65.1,59.1,50.4,57.0,48.9,40.2,84,69,57,30.25,30.02,10,4,19,0.00
2013-1-23,64.1,55.3,46.6,52.2,45.1,36.6,89,69,59,30.33,30.24,7,3,15,0.00
2013-1-24,71.6,58.4,45.0,53.3,47.3,41.7,92,69,44,30.31,30.19,7,2,13,0.00
2013-1-25,71.4,60.4,50.2,57.7,52.9,48.5,97,78,52,30.28,30.15,4,1,8,0.00
2013-1-26,72.2,60.2,47.6,58.7,53.1,45.1,95,78,51,30.25,30.13,4,1,6,0.00
2013-1-27,75.0,64.9,54.5,65.0,59.7,53.1,97,84,60,30.30,30.20,9,2,14,0.01
2013-1-28,74.8,70.3,67.2,66.4,64.5,62.6,93,82,70,30.32,30.23,8,2,15,0.00
2013-1-29,79.5,71.2,64.9,69.6,66.8,63.7,97,87,70,30.24,30.09,6,1,10,0.00
2013-1-30,82.6,72.0,66.2,67.8,65.7,62.7,96,82,52,30.10,29.91,6,2,17,0.01
2013-1-31,64.5,58.3,48.9,53.2,40.8,32.0,91,54,32,30.20,30.03,14,3,16,0.05
2013-2-1,65.7,54.8,45.8,44.2,34.9,29.5,76,49,28,30.32,30.19,17,2,17,0.00
2013-2-2,70.9,56.8,42.8,50.4,42.9,34.4,85,63,31,30.28,30.12,7,1,9,0.00
2013-2-3,69.7,57.7,45.9,50.2,44.8,38.0,91,64,40,30.17,30.03,16,3,18,0.00
2013-2-4,69.3,55.6,40.5,52.4,45.3,38.1,93,71,44,30.12,30.00,7,1,8,0.00
2013-2-5,75.9,61.3,44.0,58.4,50.5,42.4,96,71,39,30.09,29.96,11,0,12,0.00
2013-2-6,76.2,66.9,57.2,66.8,61.6,53.8,96,84,65,30.10,30.00,7,0,8,0.00
2013-2-7,77.5,70.6,62.4,67.7,64.0,60.0,94,80,63,30.06,29.85,15,2,17,0.00
2013-2-8,79.1,67.8,59.9,63.9,61.0,56.1,96,81,46,30.05,29.84,16,1,16,0.00
2013-2-9,71.9,64.0,53.5,60.3,57.2,52.1,96,80,63,30.19,30.04,12,1,12,0.01
2013-2-10,75.5,68.9,64.2,61.9,58.7,55.8,80,70,57,30.26,30.17,17,2,21,0.00
2013-2-11,79.2,71.0,63.2,66.3,63.7,60.7,94,78,59,30.20,30.06,14,1,14,0.00
2013-2-12,83.8,72.5,63.8,68.9,65.2,62.1,96,80,49,30.09,29.91,14,1,15,0.00
2013-2-13,87.0,73.3,62.9,70.9,65.8,60.5,97,80,49,29.95,29.78,21,2,23,0.11
2013-2-14,66.8,62.8,59.2,64.7,60.7,58.0,97,93,88,30.02,29.90,13,1,14,0.27
2013-2-15,67.3,59.5,54.2,59.8,56.3,53.4,100,90,76,30.05,29.93,8,1,9,0.05
2013-2-16,68.1,58.7,49.7,54.8,44.4,25.4,94,62,31,30.08,29.85,26,4,27,0.01
2013-2-17,52.2,45.0,36.1,36.2,22.1,12.7,67,42,23,30.32,30.08,20,4,21,0.01
2013-2-18,64.9,51.5,35.6,51.1,38.5,22.7,80,62,42,30.34,30.19,12,1,13,0.00
2013-2-19,78.3,64.3,49.6,59.2,51.6,45.9,91,66,37,30.20,30.03,17,1,17,0.00
2013-2-20,69.5,63.6,56.8,60.2,57.3,53.1,92,80,67,30.11,30.01,13,2,13,0.00
2013-2-21,80.0,70.1,62.1,66.4,63.5,58.5,92,81,56,30.09,29.98,7,0,8,0.00
2013-2-22,80.1,72.2,64.4,71.2,68.2,62.9,98,88,71,30.08,29.99,12,1,14,0.00
2013-2-23,87.3,76.1,68.2,70.8,66.9,63.9,97,76,47,30.00,29.84,18,1,18,0.00
2013-2-24,77.5,69.4,66.1,70.8,67.0,64.9,97,93,78,29.95,29.84,12,1,13,0.48
2013-2-25,85.2,74.6,67.4,73.6,68.6,63.3,98,83,51,29.91,29.75,13,0,14,0.04
2013-2-26,81.3,73.9,64.1,71.8,69.0,61.9,94,85,68,29.83,29.72,18,1,18,0.02
2013-2-27,75.8,65.8,57.3,62.4,59.1,50.8,96,80,47,29.94,29.83,10,1,12,0.01
2013-2-28,74.3,61.3,49.1,51.7,48.2,42.8,93,65,36,29.98,29.83,19,2,19,0.00
2013-3-1,63.9,56.2,48.4,47.7,41.1,34.3,91,60,36,29.96,29.87,14,3,14,0.00
2013-3-2,59.1,51.1,40.0,41.9,34.6,26.1,78,55,29,30.01,29.90,29,4,29,0.00
2013-3-3,54.7,44.8,34.6,34.3,31.7,29.9,85,62,42,30.14,29.95,22,4,27,0.00
2013-3-4,60.4,48.1,32.4,45.1,34.5,23.5,91,63,31,30.21,30.11,13,1,13,0.00
2013-3-5,77.3,59.9,43.4,58.1,47.1,39.6,94,67,28,30.17,29.98,15,1,15,0.00
2013-3-6,69.4,60.5,49.4,60.6,40.7,25.2,93,54,21,30.10,29.89,23,5,25,0.01
2013-3-7,62.3,51.8,40.9,49.2,41.4,32.0,92,68,51,30.19,30.07,13,2,14,0.00
2013-3-8,67.6,56.7,44.2,52.5,47.8,41.2,95,74,44,30.20,30.11,12,1,12,0.00
2013-3-9,71.2,61.0,46.8,57.6,51.7,44.4,92,73,51,30.21,30.11,10,0,12,0.00
2013-3-10,75.3,65.5,55.2,59.4,56.1,52.0,92,73,49,30.16,30.08,16,2,17,0.00
2013-3-11,76.3,68.0,58.4,64.2,59.3,55.1,92,75,52,30.11,29.91,16,2,16,0.00
2013-3-12,73.7,67.8,60.0,68.3,63.7,57.7,96,87,77,29.98,29.86,16,1,19,0.17
2013-3-13,68.7,59.7,50.7,57.7,48.2,36.4,95,68,32,30.14,29.97,15,3,17,0.00
2013-3-14,52.2,51.5,50.3,45.4,44.0,42.6,78,75,74,30.14,30.11,7,1,7,0.00
2013-3-18,73.2,71.1,68.9,66.4,65.1,64.3,87,81,76,29.92,29.89,8,1,9,0.00
2013-3-19,83.2,72.2,65.1,66.3,64.2,61.3,95,78,50,29.99,29.86,10,1,12,0.00
2013-3-20,75.6,68.5,59.1,67.8,64.4,56.8,94,87,73,29.95,29.76,12,1,15,0.06
2013-3-21,70.8,59.1,50.8,57.5,45.2,30.6,96,66,25,29.94,29.82,15,2,15,0.00
2013-3-22,75.1,61.6,47.3,62.6,50.7,42.1,89,70,38,30.01,29.89,10,1,11,0.02
2013-3-23,87.1,74.9,66.1,72.9,67.6,62.4,96,80,51,29.97,29.72,20,1,27,0.00
2013-3-24,85.1,73.0,64.4,71.9,69.1,61.5,97,89,61,29.85,29.60,35,2,35,0.54
2013-3-25,73.5,66.2,54.9,69.1,47.3,26.8,95,58,20,29.99,29.68,19,3,21,0.02
2013-3-26,61.2,53.8,46.6,40.8,29.6,20.4,64,41,22,30.19,29.98,22,5,24,0.00
2013-3-27,62.0,50.9,39.7,43.9,36.0,30.0,77,58,38,30.27,30.16,14,3,14,0.00
2013-3-28,66.6,54.6,41.2,47.3,41.4,36.1,91,64,33,30.27,30.17,12,2,12,0.00
2013-3-29,70.6,59.3,46.4,49.6,43.3,33.8,91,60,27,30.31,30.19,10,1,10,0.00
2013-3-30,75.8,63.3,48.2,57.1,51.3,44.5,88,67,40,30.24,30.11,13,1,14,0.00
2013-3-31,82.7,68.7,57.5,65.8,57.8,52.4,86,70,37,30.16,29.97,15,1,15,0.00
2013-4-1,84.9,73.6,61.6,67.4,61.7,58.4,93,69,44,30.01,29.87,21,2,21,0.00
2013-4-2,78.5,69.4,61.7,64.3,61.7,56.4,96,78,48,30.07,29.96,12,1,12,0.00
2013-4-3,82.0,73.5,67.7,70.1,66.3,62.6,95,79,55,30.06,29.95,15,1,15,0.54
2013-4-4,75.6,70.9,67.3,70.8,67.5,62.5,96,89,79,30.02,29.83,20,1,20,0.10
2013-4-5,77.4,67.1,60.3,68.9,63.5,56.9,97,89,68,29.94,29.77,23,2,23,0.42
2013-4-6,74.4,65.4,54.6,63.7,59.2,52.3,93,81,64,30.11,29.94,18,4,18,0.00
2013-4-7,77.4,69.3,59.3,63.8,61.4,57.9,97,77,56,30.15,30.03,14,2,14,0.00
2013-4-8,80.5,71.1,60.4,67.2,63.5,59.3,98,79,54,30.13,30.04,11,1,11,0.00
2013-4-9,81.3,73.9,69.2,68.3,65.0,59.8,91,75,53,30.17,30.05,12,1,14,0.00
2013-4-10,82.2,74.5,66.3,71.6,67.9,63.6,96,81,61,30.11,29.98,11,1,14,0.00
2013-4-11,82.2,77.1,73.5,72.6,71.2,70.0,91,82,69,29.99,29.82,21,3,21,0.00
2013-4-12,87.2,78.8,73.4,74.1,71.1,67.6,94,78,58,29.89,29.78,18,1,18,0.00
2013-4-13,79.8,73.8,70.7,70.7,66.8,62.5,95,79,65,29.97,29.84,11,1,11,0.00
2013-4-14,85.2,75.6,68.1,75.8,70.5,65.8,97,84,71,29.97,29.79,18,2,18,1.27
2013-4-15,84.8,74.6,65.4,70.7,66.0,62.1,97,77,49,30.06,29.88,11,1,12,0.30
2013-4-16,81.9,76.6,73.0,72.0,69.8,67.4,94,80,66,30.13,30.02,14,3,15,0.00
2013-4-17,80.3,74.5,65.2,71.0,67.1,63.4,96,79,62,30.13,30.02,12,1,13,0.00
2013-4-18,84.8,80.6,67.9,72.5,70.9,66.1,95,73,58,30.06,29.96,14,1,15,0.00
2013-4-19,86.6,78.3,71.9,75.0,72.0,67.2,92,81,58,30.01,29.87,18,1,20,0.02
2013-4-20,73.8,68.2,64.5,70.7,64.7,60.0,95,88,81,30.12,29.93,17,3,18,0.00
2013-4-21,77.3,71.5,63.8,72.1,68.3,59.5,97,90,80,30.11,29.97,16,3,19,0.96
2013-4-22,78.3,70.9,67.3,70.0,67.7,65.4,98,90,74,30.05,29.96,17,3,18,0.33
2013-4-23,77.7,72.2,65.4,67.6,64.9,62.6,97,78,63,30.10,29.98,15,3,15,0.00
2013-4-24,81.8,70.1,58.2,66.8,62.0,57.1,97,77,54,30.13,30.05,11,1,11,0.01
2013-4-25,83.8,74.8,62.8,68.1,64.5,59.6,94,72,46,30.18,30.07,11,1,11,0.00
2013-4-26,83.4,74.6,65.1,69.0,65.8,63.0,94,76,56,30.23,30.13,13,1,13,0.00
2013-4-27,78.3,75.0,72.1,69.1,67.2,64.8,88,77,65,30.21,30.11,8,3,20,0.00
2013-4-28,80.5,74.6,72.1,67.7,65.2,63.8,86,73,59,30.13,30.00,10,1,15,0.00
2013-4-29,84.3,75.9,67.7,71.0,67.1,63.1,96,76,52,30.03,29.89,16,1,16,0.29
2013-4-30,82.8,73.5,66.4,73.2,69.2,65.2,97,87,69,29.99,29.91,12,0,13,0.02
2013-5-1,78.9,73.7,69.2,71.5,69.5,64.0,94,87,74,30.00,29.92,15,2,18,0.29
2013-5-2,74.7,71.4,67.0,72.4,68.6,62.3,97,91,83,29.94,29.80,15,2,20,0.72
2013-5-3,76.0,70.6,67.7,71.8,68.6,66.5,97,93,82,29.83,29.59,32,3,36,0.79
2013-5-4,80.7,73.3,68.0,72.3,69.2,66.5,96,87,73,29.76,29.64,15,0,15,0.10
2013-5-5,79.0,68.2,63.4,69.8,64.9,44.2,95,90,30,29.89,29.71,17,2,20,0.00
2013-5-6,80.8,69.2,59.2,62.8,56.0,52.1,92,65,40,29.97,29.86,18,1,18,0.00
2013-5-7,80.3,68.3,54.0,58.8,55.8,51.6,95,67,42,30.03,29.92,14,1,16,0.00
2013-5-8,83.0,71.5,58.1,65.4,59.5,56.5,96,69,43,30.11,30.00,16,1,16,0.00
2013-5-9,81.2,73.0,62.0,69.0,63.6,58.8,94,74,51,30.14,30.05,14,2,14,0.00
2013-5-10,86.5,77.9,67.2,73.5,70.0,65.0,97,78,57,30.12,29.98,15,1,15,0.00
2013-5-11,91.5,77.0,69.5,74.2,70.2,67.2,96,81,50,30.04,29.91,19,1,24,0.83
2013-5-12,89.2,78.6,68.4,74.6,70.5,66.7,98,79,50,30.01,29.90,12,1,15,0.01
2013-5-13,79.1,72.5,67.9,71.8,63.0,55.0,94,74,51,30.10,29.95,16,1,18,0.00
2013-5-14,79.6,72.2,58.8,61.6,56.6,49.2,87,59,44,30.19,30.09,13,1,13,0.00
2013-5-15,81.3,73.4,61.0,63.9,60.3,57.4,89,65,47,30.20,30.09,13,1,15,0.00
2013-5-16,83.5,74.8,64.1,65.6,62.9,56.2,90,68,44,30.12,30.02,15,1,15,0.00
2013-5-17,84.0,76.4,64.7,70.8,66.7,61.6,91,73,55,30.09,30.01,16,2,18,0.00
2013-5-18,84.7,78.2,70.1,73.3,70.9,68.0,95,79,62,30.10,30.01,14,2,15,0.00
2013-5-19,83.8,77.6,73.1,74.4,71.2,69.1,95,81,68,30.09,29.99,14,1,15,0.03
2013-5-20,83.8,77.7,72.6,73.9,71.7,69.3,95,82,67,30.07,29.98,13,0,14,0.06
2013-5-21,82.0,74.6,68.7,73.3,70.9,66.9,96,88,71,30.03,29.93,22,1,23,1.04
2013-5-22,83.6,76.3,69.7,74.3,71.4,68.3,98,85,72,29.96,29.88,11,0,13,0.00
2013-5-23,87.3,76.4,68.4,75.4,71.0,65.4,97,84,60,29.98,29.89,30,0,30,0.45
2013-5-24,90.1,78.7,67.8,74.8,69.4,63.7,97,75,49,30.07,29.93,10,1,11,0.00
2013-5-25,82.0,77.8,73.5,71.5,65.3,59.6,82,66,52,30.19,30.05,17,2,18,0.00
2013-5-26,81.0,75.6,71.5,65.2,62.0,58.6,72,63,49,30.20,30.12,13,2,16,0.00
2013-5-27,82.0,76.9,73.2,68.4,65.3,62.1,78,68,55,30.18,30.10,15,4,18,0.00
2013-5-28,83.5,78.3,74.4,73.1,70.5,67.4,87,77,65,30.14,30.07,17,4,19,0.00
2013-5-29,83.6,78.9,74.8,74.2,72.8,70.0,90,82,68,30.13,30.04,21,4,21,0.00
2013-5-30,82.8,78.5,72.0,74.9,72.8,68.9,95,83,73,30.13,30.03,19,3,21,0.21
2013-5-31,83.7,80.1,76.3,73.6,72.3,70.1,85,77,68,30.10,30.03,23,5,23,0.02
2013-6-1,84.9,78.9,75.6,75.9,73.8,71.7,94,85,72,30.06,29.97,18,3,18,0.23
2013-6-2,88.4,79.6,74.2,78.5,74.7,69.7,96,85,63,30.00,29.86,15,1,15,0.04
2013-6-3,88.3,79.1,73.0,77.7,74.6,71.8,97,87,66,29.98,29.86,13,0,13,1.00
2013-6-4,87.3,77.6,72.5,75.8,73.1,70.6,98,87,61,30.03,29.91,14,0,16,0.20
2013-6-5,86.1,78.1,73.0,77.5,74.0,71.8,97,88,69,30.01,29.90,13,1,13,0.04
2013-6-6,79.6,76.1,72.9,76.7,73.4,70.3,97,91,84,29.90,29.67,20,2,28,0.22
2013-6-7,89.9,80.2,73.1,75.3,73.4,71.6,96,81,58,29.93,29.74,14,1,16,0.00
2013-6-8,88.3,77.5,71.5,76.9,73.2,70.3,97,88,65,30.07,29.92,17,0,20,0.00
2013-6-9,87.4,79.5,71.3,78.2,74.1,70.4,98,85,67,30.10,30.02,15,1,15,0.00
2013-6-10,88.1,81.6,75.9,78.4,75.7,72.8,95,83,66,30.08,30.00,15,1,15,0.00
2013-6-11,90.4,79.1,71.6,79.6,74.5,69.2,96,87,55,30.07,29.99,13,0,13,0.00
2013-6-12,90.6,80.5,70.9,76.2,73.0,69.7,97,79,58,30.07,29.98,11,0,11,0.00
2013-6-13,93.9,82.3,72.5,78.3,73.3,70.1,94,76,49,30.02,29.86,11,0,11,0.00
2013-6-14,93.0,82.4,72.8,75.7,72.2,69.2,97,74,47,29.91,29.81,15,1,16,0.00
2013-6-15,86.4,80.2,74.8,77.4,74.0,69.8,94,82,68,30.05,29.89,22,3,22,0.00
2013-6-16,87.8,82.2,78.3,76.8,75.3,73.9,90,80,66,30.08,30.01,12,1,14,0.00
2013-6-17,91.0,82.5,78.0,78.1,76.2,73.5,92,82,60,30.06,29.96,13,0,14,0.07
2013-6-18,94.2,82.1,71.5,78.6,74.8,70.0,97,80,52,30.08,29.93,17,1,17,2.92
2013-6-19,91.6,80.7,72.0,77.8,73.3,68.8,96,79,58,30.02,29.92,16,0,16,0.57
2013-6-20,92.8,77.8,70.6,77.8,72.2,65.4,95,84,54,30.07,29.99,33,1,41,0.66
2013-6-21,89.2,77.4,71.0,77.1,72.3,67.5,97,85,61,30.12,30.02,25,0,30,1.55
2013-6-22,88.5,81.7,74.1,76.0,73.3,68.6,94,77,53,30.11,30.03,11,1,13,0.00
2013-6-23,87.9,80.7,74.7,77.1,74.6,72.2,94,82,66,30.13,30.04,11,0,12,0.00
2013-6-24,89.5,83.1,78.5,76.6,74.6,72.1,88,76,60,30.17,30.07,15,1,17,0.00
2013-6-25,87.4,82.2,77.6,76.2,74.4,70.4,89,78,58,30.14,30.03,12,1,12,0.00
2013-6-26,88.7,79.6,73.7,78.7,75.3,72.0,96,87,63,30.07,29.99,14,0,18,0.49
2013-6-27,91.0,79.2,71.5,78.1,73.6,70.4,97,84,55,30.03,29.90,12,0,17,0.10
2013-6-28,93.0,80.6,73.6,77.6,73.5,69.4,96,80,53,29.95,29.82,20,1,20,0.00
2013-6-29,91.3,81.0,75.4,77.0,73.8,70.6,94,80,57,29.86,29.77,16,1,16,0.00
2013-6-30,92.8,77.9,73.2,77.9,73.6,71.5,97,88,55,29.89,29.80,14,0,16,0.72
2013-7-1,86.6,76.2,72.5,79.0,73.3,70.1,97,91,70,30.02,29.86,23,0,23,0.46
2013-7-2,86.4,77.3,72.8,78.7,74.6,71.3,97,92,76,30.09,29.96,15,0,16,0.26
2013-7-3,87.3,80.6,76.2,78.3,75.9,74.0,95,86,72,30.13,30.04,16,1,16,0.00
2013-7-4,87.5,81.8,76.1,77.5,75.1,70.7,93,81,68,30.14,30.06,17,1,18,0.00
2013-7-5,87.4,82.3,78.2,78.4,75.4,73.4,94,80,67,30.14,30.06,16,1,18,0.09
2013-7-6,88.3,82.3,78.0,77.0,75.0,73.5,89,79,65,30.12,30.05,13,1,17,0.00
2013-7-7,88.6,82.8,78.3,76.7,75.0,72.0,90,78,61,30.12,30.04,16,2,16,0.00
2013-7-8,88.7,82.8,78.8,76.6,75.2,72.8,89,78,60,30.15,30.07,14,2,14,0.00
2013-7-9,86.2,82.2,78.4,75.8,73.9,70.4,88,77,61,30.15,30.06,16,2,18,0.00
2013-7-10,90.0,82.2,75.4,75.5,73.5,70.7,92,76,56,30.07,29.97,11,1,13,0.00
2013-7-11,91.9,79.6,73.1,76.6,73.5,69.8,95,83,52,30.02,29.89,21,0,22,0.15
2013-7-12,91.6,79.4,73.4,76.6,73.4,70.0,96,83,50,29.94,29.86,12,0,17,0.00
2013-7-13,88.6,78.3,72.7,76.4,72.9,71.0,96,84,61,29.99,29.89,13,0,13,0.01
2013-7-14,86.8,77.8,72.2,76.2,72.4,69.3,94,84,68,30.09,29.96,15,1,15,0.00
2013-7-15,84.0,78.4,71.0,77.2,73.3,69.2,95,85,73,30.11,30.01,18,2,19,0.03
2013-7-16,86.2,80.6,77.5,77.2,74.1,72.5,88,81,68,30.15,30.08,20,3,22,0.10
2013-7-17,86.5,80.5,74.3,76.4,74.5,71.6,95,82,66,30.14,30.06,18,3,19,0.15
2013-7-18,86.0,80.0,74.5,76.0,73.8,71.0,94,82,64,30.11,30.04,11,0,12,0.20
2013-7-19,87.1,78.1,72.0,77.9,73.4,70.3,95,86,67,30.13,30.01,14,0,15,0.39
2013-7-20,86.9,77.5,71.9,79.6,74.7,70.4,96,91,75,30.09,30.00,12,0,13,0.52
2013-7-21,90.6,78.5,72.4,78.7,74.1,69.6,96,87,61,30.11,29.99,36,0,36,0.41
2013-7-22,93.9,78.9,72.4,77.9,73.5,70.8,96,85,52,30.10,30.03,19,1,19,0.06
2013-7-23,89.7,78.8,72.7,77.7,73.5,71.2,96,85,61,30.07,29.91,16,1,16,0.02
2013-7-24,88.3,79.7,74.6,77.5,74.5,71.5,95,85,63,29.98,29.84,16,1,19,0.81
2013-7-25,87.3,78.8,73.9,77.8,75.0,71.2,94,88,65,29.95,29.84,23,1,27,0.14
2013-7-26,89.0,81.2,75.5,78.1,75.4,73.8,96,83,64,29.98,29.91,10,0,10,0.15
2013-7-27,90.9,81.4,75.2,78.7,75.0,71.5,96,82,61,29.97,29.87,12,0,13,0.00
2013-7-28,91.4,80.6,74.0,77.5,73.3,70.3,95,80,53,30.05,29.90,16,0,16,0.11
2013-7-29,91.0,81.6,73.5,78.1,74.6,70.7,95,80,57,30.14,30.00,13,0,16,0.00
2013-7-30,91.2,83.2,75.6,77.7,75.6,72.6,95,79,57,30.16,30.07,12,0,13,0.00
2013-7-31,91.2,84.2,76.7,78.7,76.1,73.9,93,77,62,30.12,30.00,10,0,12,0.00
2013-8-1,91.9,82.0,74.8,77.2,74.1,71.3,94,78,55,30.05,29.94,9,0,11,0.00
2013-8-2,89.3,82.8,75.5,76.9,74.5,72.8,94,77,61,30.00,29.91,13,1,13,0.00
2013-8-3,88.2,77.4,72.6,78.1,73.8,70.2,95,89,66,30.08,29.96,20,1,23,1.04
2013-8-4,92.0,80.4,73.5,79.4,75.6,69.1,96,86,56,30.06,29.95,23,0,23,0.18
2013-8-5,91.6,79.8,73.8,79.5,75.5,71.3,95,87,63,29.99,29.89,17,0,18,0.40
2013-8-6,90.9,82.0,73.7,79.1,75.9,72.1,96,83,66,29.96,29.88,12,1,12,0.01
2013-8-7,89.8,84.5,80.4,78.5,76.8,75.0,88,78,66,29.96,29.89,12,1,13,0.00
2013-8-8,90.5,84.5,78.8,78.4,76.3,73.1,92,77,58,30.03,29.93,14,0,14,0.00
2013-8-9,91.3,84.7,81.0,77.4,75.6,73.3,85,75,58,30.07,29.95,13,1,14,0.00
2013-8-10,92.7,84.8,76.5,78.6,75.2,71.7,90,74,54,30.11,30.04,13,1,13,0.00
2013-8-11,91.7,85.0,79.6,78.2,75.5,72.3,89,74,56,30.13,30.05,12,1,13,0.00
2013-8-12,91.3,83.2,75.1,76.7,74.1,70.0,94,75,52,30.11,30.00,11,0,12,0.00
2013-8-13,93.5,86.1,74.6,77.4,74.6,71.5,94,70,52,30.04,29.92,9,0,10,0.00
2013-8-14,91.9,80.9,76.0,79.2,75.2,71.8,92,84,58,30.00,29.89,11,0,13,0.22
2013-8-15,91.9,82.8,74.7,77.6,75.0,72.6,94,78,58,30.01,29.91,12,0,13,0.00
2013-8-16,94.7,83.5,77.5,77.5,75.2,70.5,93,78,51,30.04,29.94,11,0,11,0.18
2013-8-17,91.7,83.9,78.8,80.3,77.5,75.5,94,82,60,30.07,29.98,13,0,13,0.00
2013-8-18,90.2,84.2,80.1,79.1,76.6,73.9,87,78,64,30.09,30.00,14,0,14,0.00
2013-8-19,92.5,85.5,81.1,78.8,76.9,71.6,89,76,53,30.07,29.95,11,0,12,0.00
2013-8-20,91.3,85.5,80.1,78.5,76.0,72.4,88,74,56,30.08,29.98,13,2,14,0.00
2013-8-21,89.6,83.1,78.6,79.2,77.0,72.6,94,82,66,30.10,30.02,18,3,19,0.10
2013-8-22,90.0,83.0,79.3,79.0,77.0,75.0,91,82,67,30.07,29.97,15,1,15,0.01
2013-8-23,88.9,83.6,80.2,78.4,76.3,73.2,89,79,65,30.01,29.93,11,1,12,0.00
2013-8-24,90.3,80.6,76.2,77.9,75.3,73.2,93,85,62,30.09,29.98,14,1,15,0.53
2013-8-25,85.6,80.3,76.3,77.5,75.2,72.7,94,85,71,30.14,30.05,12,0,14,0.18
2013-8-26,87.2,81.7,76.4,78.0,75.4,72.0,93,82,65,30.12,30.00,16,1,18,0.16
2013-8-27,86.3,81.6,75.5,74.5,71.3,66.2,93,72,52,30.05,29.98,14,2,15,0.01
2013-8-28,87.7,82.1,76.6,73.2,70.5,67.2,83,69,53,30.04,29.96,11,1,11,0.00
2013-8-29,91.4,82.5,73.7,75.9,71.9,61.6,93,72,39,30.01,29.91,10,0,11,0.00
2013-8-30,90.5,82.5,75.4,76.7,73.9,70.1,91,76,53,29.96,29.87,11,1,12,0.00
2013-8-31,94.7,81.6,71.7,77.4,72.1,67.8,93,75,43,29.96,29.85,13,1,15,0.45
2013-9-1,91.1,79.0,71.8,77.2,72.6,69.9,95,82,57,29.99,29.88,12,0,12,0.02
2013-9-2,93.8,79.7,72.7,76.9,72.7,69.5,94,81,49,30.00,29.89,11,0,12,0.84
2013-9-3,91.3,80.6,72.8,78.2,73.2,71.0,95,79,56,30.00,29.89,10,0,11,0.00
2013-9-4,92.6,82.0,74.3,77.1,73.8,70.8,93,77,53,30.07,29.95,8,0,8,0.00
2013-9-5,89.5,82.5,75.9,79.3,75.7,71.2,91,80,67,30.07,29.99,11,0,11,0.00
2013-9-6,90.1,80.2,75.1,79.1,75.0,71.0,94,85,56,30.03,29.93,19,1,19,0.21
2013-9-7,87.5,79.7,73.1,77.9,73.8,71.6,95,83,64,29.99,29.90,10,0,11,0.01
2013-9-8,89.2,81.2,73.7,76.8,73.4,71.3,93,78,59,29.95,29.86,14,1,14,0.00
2013-9-9,89.2,82.2,74.6,75.1,73.2,68.7,91,75,53,30.02,29.90,13,2,14,0.00
2013-9-10,87.3,82.7,79.4,75.3,72.6,67.5,82,72,54,30.08,29.97,16,4,19,0.00
2013-9-11,89.7,83.3,79.4,75.7,73.5,68.9,84,73,54,30.06,29.98,15,3,16,0.00
2013-9-12,87.9,80.7,75.3,77.2,74.3,72.5,93,81,65,30.01,29.88,12,0,14,0.00
2013-9-13,89.5,80.5,73.0,75.5,72.9,70.3,94,79,54,29.89,29.77,11,0,11,0.00
2013-9-14,90.3,82.0,74.6,77.2,74.3,71.8,93,79,58,29.96,29.80,11,1,12,0.00
2013-9-15,87.3,80.3,75.6,78.1,74.7,71.3,92,83,69,30.06,29.94,15,1,21,0.12
2013-9-16,88.6,81.1,73.5,76.6,73.7,71.0,94,79,62,30.06,29.97,15,2,19,0.00
2013-9-17,87.1,82.2,77.3,76.4,74.1,68.9,87,77,63,30.05,29.94,18,3,20,0.00
2013-9-18,86.3,81.8,78.1,76.5,73.9,71.5,88,77,68,30.01,29.94,19,4,22,0.30
2013-9-19,86.3,80.9,77.3,75.3,72.5,68.3,90,76,60,30.03,29.94,18,3,18,0.02
2013-9-20,86.1,81.2,77.9,72.2,70.1,68.2,79,69,57,30.01,29.89,13,1,14,0.00
2013-9-21,89.7,80.0,70.3,72.1,69.2,65.7,91,71,47,29.92,29.75,12,1,13,0.00
2013-9-22,91.3,79.4,74.0,75.3,72.1,70.0,92,80,53,29.84,29.72,22,1,22,0.01
2013-9-23,89.0,78.0,74.0,77.2,73.9,71.5,94,88,66,29.94,29.82,11,0,11,1.41
2013-9-24,88.0,78.4,74.8,76.4,74.0,70.7,95,87,64,29.94,29.81,16,1,16,0.02
2013-9-25,82.7,77.6,74.3,73.7,71.7,69.5,94,82,68,29.82,29.75,17,1,17,0.01
2013-9-26,90.9,80.3,74.3,77.7,73.3,69.0,93,80,49,29.83,29.73,19,3,19,0.00
2013-9-27,82.8,75.9,71.0,73.4,70.8,68.4,94,85,70,29.92,29.81,13,2,14,0.01
2013-9-28,83.5,76.7,71.7,74.2,70.6,67.7,93,82,65,29.98,29.88,14,1,15,0.04
2013-9-29,85.5,78.0,70.2,72.8,70.1,67.3,91,77,61,29.97,29.89,11,0,13,0.00
2013-9-30,85.8,78.0,69.6,73.4,70.4,66.8,93,78,61,30.00,29.89,12,1,13,0.02
2013-10-1,85.0,79.6,73.9,74.4,71.5,69.8,91,77,66,30.04,29.95,13,1,13,0.76
2013-10-2,86.3,80.4,75.7,72.5,70.5,68.7,83,72,57,30.05,29.98,11,0,12,0.00
2013-10-3,86.9,79.4,70.5,74.4,70.9,67.2,91,76,58,30.05,29.96,11,0,12,0.00
2013-10-4,87.5,80.6,73.3,73.6,71.6,69.2,88,75,59,30.06,29.98,13,0,13,0.00
2013-10-5,86.5,81.1,74.8,75.0,72.6,68.8,87,76,58,30.04,29.94,14,1,14,0.00
2013-10-6,89.8,81.9,74.3,75.1,73.4,69.9,92,76,53,29.96,29.85,11,0,14,0.00
2013-10-7,86.4,78.1,73.9,74.6,72.4,70.4,92,83,63,29.86,29.75,25,0,25,0.06
2013-10-8,88.5,78.2,73.6,76.0,72.9,66.7,93,84,63,29.90,29.75,24,1,24,0.30
2013-10-9,81.0,76.2,69.3,73.4,70.2,65.6,92,82,72,30.00,29.87,17,5,18,0.00
2013-10-10,82.5,74.2,66.5,70.0,66.3,63.5,92,77,61,30.03,29.95,13,2,13,0.00
2013-10-11,83.3,74.5,64.0,67.3,64.3,61.0,93,72,52,30.02,29.92,7,0,8,0.00
2013-10-12,74.7,70.5,68.2,66.8,65.8,65.2,90,85,76,29.97,29.94,0,0,0,0.00
2013-10-16,84.5,79.8,69.2,73.4,71.4,67.1,95,76,59,29.95,29.87,6,0,7,0.01
2013-10-17,85.5,77.2,69.1,73.4,70.5,67.1,95,81,58,29.96,29.87,11,1,11,0.01
2013-10-18,89.0,78.9,70.5,74.4,70.9,67.6,94,78,51,29.97,29.89,9,0,12,0.00
2013-10-19,87.8,80.3,72.2,76.3,73.1,69.1,91,79,62,29.94,29.84,11,0,11,0.00
2013-10-20,84.5,78.7,73.4,76.0,73.5,70.9,94,84,74,29.94,29.84,11,0,11,0.00
2013-10-21,89.7,80.4,73.7,77.6,74.0,70.9,93,82,62,29.98,29.87,13,0,13,0.18
2013-10-22,90.8,80.2,75.8,76.4,73.8,70.7,91,82,58,29.93,29.77,14,1,16,0.03
2013-10-23,82.3,74.8,67.5,71.4,64.4,53.7,92,72,42,29.98,29.77,14,1,15,0.01
2013-10-24,74.5,67.6,62.6,61.1,55.7,46.9,84,66,49,30.13,29.97,12,3,13,0.00
2013-10-25,77.3,68.8,60.1,62.3,58.7,55.8,88,72,48,30.20,30.11,13,2,13,0.00
2013-10-26,77.5,70.4,61.1,60.0,57.4,46.1,82,64,35,30.18,30.07,12,1,14,0.00
2013-10-27,75.9,66.9,57.5,61.0,57.5,54.2,92,73,53,30.11,30.04,11,1,11,0.00
2013-10-28,81.0,70.4,59.7,65.7,60.7,54.6,86,73,52,30.16,30.07,9,0,11,0.00
2013-10-29,81.6,73.0,64.1,68.9,65.1,59.4,88,77,60,30.20,30.12,8,0,11,0.00
2013-10-30,81.9,74.8,66.5,70.8,67.6,63.8,92,79,58,30.21,30.09,12,1,14,0.01
2013-10-31,84.6,78.1,71.8,71.7,68.9,66.4,86,74,58,30.11,29.98,11,1,12,0.00
2013-11-1,88.2,78.4,71.5,73.6,69.6,66.3,91,76,52,29.99,29.83,17,1,17,0.00
2013-11-2,79.7,69.6,66.4,70.2,65.7,62.9,92,88,69,29.90,29.80,17,6,19,0.03
2013-11-3,75.8,69.7,58.0,63.1,56.5,45.6,89,65,35,30.08,29.90,17,6,19,0.03
2013-11-4,77.5,73.6,68.7,66.6,61.4,56.7,80,66,54,30.14,30.05,24,7,24,0.01
2013-11-5,79.7,74.7,71.2,69.9,67.6,62.3,86,79,64,30.14,30.08,22,6,22,0.07
2013-11-6,80.1,74.1,70.5,70.6,68.4,65.4,90,83,64,30.09,30.02,15,2,19,0.01
2013-11-7,79.4,72.8,67.7,71.6,68.1,64.5,94,85,73,30.02,29.93,8,1,11,0.00
2013-11-8,76.1,71.4,66.7,68.8,64.9,61.8,91,80,72,30.10,29.95,17,4,22,0.00
2013-11-9,78.2,73.8,70.9,67.4,65.0,62.4,86,74,60,30.17,30.07,15,4,18,0.00
2013-11-10,80.3,72.2,64.3,69.3,65.6,61.3,92,81,57,30.15,30.07,11,1,11,0.00
2013-11-11,81.0,73.0,66.7,70.0,66.2,64.0,92,80,58,30.14,30.05,10,2,10,0.01
2013-11-12,76.0,70.7,66.0,69.2,65.7,59.3,93,84,74,30.09,29.98,10,0,10,0.01
2013-11-13,67.9,65.5,64.1,60.4,55.4,49.2,81,70,57,30.29,30.04,30,8,30,0.00
2013-11-14,73.5,68.7,64.8,60.9,56.5,50.4,78,65,50,30.28,30.15,18,5,18,0.00
2013-11-15,78.0,71.5,66.5,66.3,63.3,58.7,89,76,62,30.18,30.06,11,0,11,0.07
2013-11-16,78.9,73.1,69.3,71.1,68.5,66.0,91,86,71,30.12,30.01,7,0,7,0.06
2013-11-17,82.8,75.9,70.1,72.3,69.7,67.4,93,82,64,30.08,29.98,10,0,12,0.00
2013-11-18,85.1,76.6,70.9,72.2,69.4,66.8,91,79,63,30.00,29.89,8,0,10,0.00
2013-11-19,76.0,72.0,68.3,68.2,65.5,62.5,91,81,67,29.95,29.85,12,2,13,0.00
2013-11-20,78.2,75.0,68.5,70.5,69.1,64.4,88,82,74,30.09,29.93,17,5,20,0.04
2013-11-21,76.8,74.4,72.1,71.2,69.4,68.1,91,85,80,30.17,30.07,18,3,18,0.85
2013-11-22,78.0,75.2,71.2,69.8,67.8,65.3,84,78,67,30.19,30.08,15,3,15,0.00
2013-11-23,82.1,74.2,67.8,69.3,67.0,64.6,91,79,60,30.10,29.98,6,0,7,0.00
2013-11-24,72.7,67.7,63.7,66.5,61.2,54.8,91,80,67,30.22,30.00,25,6,25,0.03
2013-11-25,71.9,69.5,66.2,65.4,59.0,54.6,86,69,60,30.24,30.07,20,7,20,0.01
2013-11-26,81.8,75.6,70.6,73.1,69.7,64.7,88,82,71,30.07,29.73,17,2,17,0.02
2013-11-27,74.5,64.3,44.9,71.1,57.2,38.1,91,78,57,30.17,29.67,21,4,24,0.19
2013-11-28,63.8,52.1,39.3,55.7,45.7,34.7,88,79,69,30.30,30.16,19,5,19,0.00
2013-11-29,69.2,60.9,52.5,61.5,55.8,49.0,92,83,71,30.33,30.25,24,5,27,0.02
2013-11-30,74.9,66.3,61.7,66.9,62.4,58.6,93,87,66,30.27,30.15,11,2,14,0.11
2013-12-1,70.2,66.1,63.3,65.8,63.1,60.9,93,90,85,30.15,29.95,12,2,14,0.01
2013-12-2,73.5,64.7,58.2,62.6,60.3,55.6,93,86,57,29.95,29.78,12,1,12,0.01
2013-12-3,76.2,66.5,57.0,63.8,59.6,54.9,95,80,57,29.98,29.86,7,0,7,0.00
2013-12-4,82.6,71.2,62.0,69.1,64.5,58.9,91,80,55,30.08,29.95,9,0,11,0.00
2013-12-5,81.1,72.6,65.2,69.8,66.5,62.3,92,82,65,30.16,30.07,10,0,10,0.01
2013-12-6,80.7,73.1,67.7,72.4,68.5,65.0,92,86,67,30.18,30.07,12,0,12,0.04
2013-12-7,82.2,73.2,65.7,70.1,67.0,62.9,92,82,58,30.22,30.12,8,0,8,0.00
2013-12-8,80.9,74.1,68.6,71.6,68.4,65.9,92,83,66,30.22,30.10,12,0,12,0.01
2013-12-9,82.3,74.1,67.3,72.0,68.3,64.7,93,83,69,30.18,30.07,12,0,12,0.00
2013-12-10,83.9,73.0,62.9,71.2,65.2,60.2,92,78,54,30.17,30.04,15,1,15,0.01
2013-12-11,80.0,71.1,63.0,70.6,65.1,58.8,89,82,70,30.22,30.13,13,2,17,0.00
2013-12-12,65.8,63.3,51.8,61.9,54.8,46.5,90,75,53,30.28,30.16,21,5,21,0.00
2013-12-13,72.1,63.3,49.7,61.3,54.3,46.4,92,74,55,30.25,30.11,13,2,15,0.00
2013-12-14,79.5,74.0,69.2,71.3,67.8,60.8,88,81,74,30.11,29.92,17,1,17,0.04
2013-12-15,73.3,69.0,60.2,69.9,63.7,56.6,91,84,70,30.09,29.87,17,1,18,0.18
2013-12-16,62.9,55.3,47.5,56.6,49.7,44.1,90,82,71,30.20,30.07,14,3,14,0.00
2013-12-17,68.5,58.1,48.3,57.6,52.0,45.4,90,81,66,30.22,30.13,12,2,13,0.00
2013-12-18,65.8,56.7,46.9,53.5,48.0,42.5,89,74,49,30.26,30.16,14,2,14,0.00
2013-12-19,75.0,61.7,47.2,60.0,53.6,43.7,94,76,56,30.26,30.16,8,0,9,0.00
2013-12-20,78.8,68.5,57.2,65.9,61.2,53.6,92,79,59,30.20,30.10,13,0,14,0.00
2013-12-21,81.0,73.6,66.1,71.9,68.7,62.8,93,85,71,30.14,30.04,16,1,16,0.01
2013-12-22,82.9,75.7,70.7,72.9,70.4,68.3,92,84,70,30.13,30.06,13,1,13,0.01
2013-12-23,85.6,75.9,69.5,72.9,69.5,66.8,92,81,58,30.16,30.05,17,0,17,0.01
2013-12-24,73.2,64.2,59.9,68.5,57.0,41.8,92,78,45,30.22,30.06,21,4,21,0.01
2013-12-25,72.3,61.2,48.1,59.9,53.3,44.4,88,76,56,30.23,30.14,14,2,16,0.00
2013-12-26,73.5,64.2,55.9,64.7,59.9,53.5,93,86,72,30.19,30.09,15,2,17,0.01
2013-12-27,71.7,68.0,64.9,66.1,64.2,61.3,92,88,81,30.23,30.13,11,4,15,0.00
2013-12-28,76.3,71.9,68.2,69.2,67.7,65.8,92,87,76,30.20,30.00,14,2,15,0.18
2013-12-29,79.0,74.0,69.7,74.2,70.1,67.0,91,88,80,30.01,29.85,11,1,11,0.10
2013-12-30,69.7,62.8,58.0,67.0,58.5,53.9,92,86,75,30.17,29.95,11,0,11,0.00
2013-12-31,67.9,63.1,58.9,59.6,55.7,54.0,85,77,63,30.29,30.14,11,2,13,0.00
2014-1-1,67.8,65.8,64.4,65.5,62.5,59.5,93,89,82,30.23,30.02,10,2,11,0.06
2014-1-2,83.3,71.2,60.4,72.6,66.5,56.5,93,86,63,30.02,29.77,18,2,18,0.37